Time;durP1;ratioP1;P1;durP2;ratioP2;P2;SDS_P1;SDS_P2;PMS_P1;PMS_P2;Temp;Humidity;BMP_temperature;BMP_pressure;BME280_temperature;BME280_humidity;BME280_pressure;Samples;Min_cycle;Max_cycle;Signal;HPM_P1;HPM_P2
2023/12/26 00:02:18;;;;;;;0.70;0.70;;;9.50;99.90;;;;;;5117325;28;20032;-75
2023/12/26 00:04:44;;;;;;;0.70;0.70;;;9.40;99.90;;;;;;5117411;28;20063;-73
2023/12/26 00:07:09;;;;;;;0.80;0.80;;;9.50;99.90;;;;;;5117281;28;20474;-75
2023/12/26 00:09:42;;;;;;;0.63;0.63;;;9.50;99.90;;;;;;5117371;28;20040;-77
2023/12/26 00:12:08;;;;;;;0.70;0.70;;;9.50;99.90;;;;;;5117260;28;20044;-72
2023/12/26 00:14:33;;;;;;;0.75;0.75;;;9.50;99.90;;;;;;5117552;28;20523;-72
2023/12/26 00:16:59;;;;;;;0.90;0.80;;;9.50;99.90;;;;;;5117199;28;20039;-75
2023/12/26 00:19:24;;;;;;;0.70;0.70;;;9.50;99.90;;;;;;5117631;27;20059;-72
2023/12/26 00:21:50;;;;;;;0.70;0.70;;;9.50;99.90;;;;;;5117062;28;20122;-73
2023/12/26 00:24:16;;;;;;;0.70;0.70;;;9.50;99.90;;;;;;5117070;28;20131;-74
2023/12/26 00:26:42;;;;;;;0.70;0.70;;;9.50;99.90;;;;;;5116998;28;20463;-74
2023/12/26 00:29:08;;;;;;;0.70;0.70;;;9.50;99.90;;;;;;5116616;28;20035;-74
2023/12/26 00:31:34;;;;;;;0.70;0.70;;;9.50;99.90;;;;;;5116810;28;20451;-73
2023/12/26 00:33:59;;;;;;;0.70;0.70;;;9.50;99.90;;;;;;5116718;28;20043;-73
2023/12/26 00:36:25;;;;;;;0.70;0.70;;;9.50;99.90;;;;;;5116700;28;20031;-74
2023/12/26 00:38:50;;;;;;;0.70;0.70;;;9.50;99.90;;;;;;5116776;28;20482;-75
2023/12/26 00:41:16;;;;;;;0.70;0.70;;;9.50;99.90;;;;;;5116763;28;20523;-75
2023/12/26 00:43:42;;;;;;;0.70;0.70;;;9.50;99.90;;;;;;5116711;28;20039;-74
2023/12/26 00:46:08;;;;;;;0.70;0.70;;;9.50;99.90;;;;;;5116439;28;20032;-75
2023/12/26 00:48:37;;;;;;;0.70;0.70;;;9.50;99.90;;;;;;5116661;28;20123;-73
2023/12/26 00:51:03;;;;;;;0.60;0.60;;;9.50;99.90;;;;;;5116370;27;20035;-74
2023/12/26 00:53:29;;;;;;;0.70;0.70;;;9.50;99.90;;;;;;5116888;28;20035;-75
2023/12/26 00:55:55;;;;;;;0.70;0.70;;;9.50;99.90;;;;;;5117011;28;20031;-73
2023/12/26 00:58:20;;;;;;;0.70;0.70;;;9.60;99.90;;;;;;5116382;28;20114;-73
2023/12/26 01:00:46;;;;;;;0.70;0.70;;;9.60;99.90;;;;;;5116345;28;20047;-74
2023/12/26 01:03:12;;;;;;;0.70;0.70;;;9.60;99.90;;;;;;5116310;28;20040;-75
2023/12/26 01:05:37;;;;;;;0.70;0.70;;;9.60;99.90;;;;;;5116139;28;20425;-74
2023/12/26 01:08:04;;;;;;;0.60;0.60;;;9.60;99.90;;;;;;5116215;28;20061;-76
2023/12/26 01:10:29;;;;;;;0.60;0.60;;;9.60;99.90;;;;;;5116139;28;20031;-75
2023/12/26 01:12:55;;;;;;;0.60;0.60;;;9.60;99.90;;;;;;5116165;28;20277;-74
2023/12/26 01:15:21;;;;;;;0.70;0.70;;;9.60;99.90;;;;;;5116053;28;20463;-74
2023/12/26 01:17:47;;;;;;;0.70;0.70;;;9.60;99.90;;;;;;5115925;28;20039;-72
2023/12/26 01:20:12;;;;;;;0.70;0.70;;;9.60;99.90;;;;;;5116010;28;20126;-74
2023/12/26 01:22:38;;;;;;;0.70;0.70;;;9.60;99.90;;;;;;5115640;28;20047;-73
2023/12/26 01:25:05;;;;;;;0.70;0.70;;;9.60;99.90;;;;;;5115707;28;20127;-75
2023/12/26 01:27:31;;;;;;;0.70;0.70;;;9.60;99.90;;;;;;5115846;28;20047;-72
2023/12/26 01:29:57;;;;;;;0.70;0.70;;;9.60;99.90;;;;;;5115739;28;20036;-73
2023/12/26 01:32:22;;;;;;;0.70;0.70;;;9.60;99.90;;;;;;5115745;28;20032;-76
2023/12/26 01:34:48;;;;;;;0.70;0.70;;;9.60;99.90;;;;;;5115557;28;20118;-73
2023/12/26 01:37:14;;;;;;;0.70;0.70;;;9.60;99.90;;;;;;5115859;28;20039;-75
2023/12/26 01:39:40;;;;;;;0.70;0.70;;;9.60;99.90;;;;;;5115589;28;20062;-74
2023/12/26 01:42:06;;;;;;;0.63;0.63;;;9.60;99.90;;;;;;5115193;28;20451;-72
2023/12/26 01:44:32;;;;;;;0.70;0.70;;;9.50;99.90;;;;;;5115534;28;20075;-76
2023/12/26 01:46:58;;;;;;;0.68;0.68;;;9.60;99.90;;;;;;5115400;28;20459;-76
2023/12/26 01:49:24;;;;;;;0.82;0.82;;;9.60;99.90;;;;;;5115417;27;20036;-76
2023/12/26 01:51:51;;;;;;;0.70;0.70;;;9.50;99.90;;;;;;5115263;28;20039;-74
2023/12/26 01:54:17;;;;;;;;;;;9.60;99.90;;;;;;5115758;28;20047;-76
2023/12/26 01:56:43;;;;;;;0.70;0.70;;;9.50;99.90;;;;;;5115328;28;19961;-72
2023/12/26 01:59:09;;;;;;;0.60;0.60;;;9.50;99.90;;;;;;5115192;28;20027;-75
2023/12/26 02:01:35;;;;;;;0.70;0.70;;;9.50;99.90;;;;;;5115181;28;20542;-75
2023/12/26 02:04:01;;;;;;;0.67;0.67;;;9.50;99.90;;;;;;5115010;28;20490;-73
2023/12/26 02:06:30;;;;;;;0.80;0.80;;;9.40;99.90;;;;;;5115041;28;20052;-73
2023/12/26 02:08:56;;;;;;;0.70;0.70;;;9.50;99.90;;;;;;5115088;28;20043;-73
2023/12/26 02:11:22;;;;;;;0.70;0.70;;;9.40;99.90;;;;;;5115186;28;20074;-72
2023/12/26 02:13:48;;;;;;;9.00;2.50;;;9.50;99.90;;;;;;5114921;28;20035;-74
2023/12/26 02:16:18;;;;;;;0.70;0.70;;;9.40;99.90;;;;;;5115127;28;20084;-73
2023/12/26 02:18:44;;;;;;;0.70;0.70;;;9.40;99.90;;;;;;5114458;28;20047;-74
2023/12/26 02:21:10;;;;;;;0.70;0.70;;;9.40;99.90;;;;;;5114852;28;20364;-75
2023/12/26 02:23:37;;;;;;;0.80;0.80;;;9.30;99.90;;;;;;5114794;28;20119;-75
2023/12/26 02:26:03;;;;;;;;;;;9.40;99.90;;;;;;5115069;28;20476;-73
2023/12/26 02:28:31;;;;;;;0.70;0.70;;;9.40;99.90;;;;;;5114660;28;20366;-74
2023/12/26 02:31:02;;;;;;;0.77;0.77;;;9.40;99.90;;;;;;5114495;28;20455;-75
2023/12/26 02:33:33;;;;;;;0.70;0.70;;;9.40;99.90;;;;;;5114614;28;20053;-75
2023/12/26 02:35:59;;;;;;;0.70;0.70;;;9.40;99.90;;;;;;5114489;28;20047;-77
2023/12/26 02:38:25;;;;;;;0.80;0.80;;;9.40;99.90;;;;;;5114493;28;20038;-75
2023/12/26 02:40:52;;;;;;;0.80;0.80;;;9.40;99.90;;;;;;5114584;28;20459;-74
2023/12/26 02:43:21;;;;;;;0.80;0.80;;;9.40;99.90;;;;;;5114456;28;20118;-75
2023/12/26 02:45:48;;;;;;;0.73;0.73;;;9.40;99.90;;;;;;5114387;28;20115;-74
2023/12/26 02:48:16;;;;;;;0.70;0.70;;;9.40;99.90;;;;;;5114536;28;20100;-74
2023/12/26 02:50:41;;;;;;;0.80;0.80;;;9.40;99.90;;;;;;5114217;28;20475;-76
2023/12/26 02:53:07;;;;;;;0.95;0.95;;;9.40;99.90;;;;;;5114345;28;20069;-74
2023/12/26 02:55:33;;;;;;;0.80;0.80;;;9.40;99.90;;;;;;5114294;28;20093;-74
2023/12/26 02:57:58;;;;;;;0.95;0.95;;;9.40;99.90;;;;;;5114295;28;20104;-76
2023/12/26 03:00:24;;;;;;;0.70;0.70;;;9.40;99.90;;;;;;5114250;28;20093;-75
2023/12/26 03:02:50;;;;;;;0.70;0.70;;;9.40;99.90;;;;;;5114122;28;20118;-73
2023/12/26 03:05:15;;;;;;;0.80;0.80;;;9.40;99.90;;;;;;5114237;28;20046;-75
2023/12/26 03:07:41;;;;;;;0.75;0.75;;;9.50;99.90;;;;;;5114137;28;20036;-75
2023/12/26 03:10:09;;;;;;;0.70;0.70;;;9.50;99.90;;;;;;5113994;28;20050;-73
2023/12/26 03:12:35;;;;;;;0.70;0.70;;;9.50;99.90;;;;;;5114063;28;20356;-73
2023/12/26 03:15:01;;;;;;;0.70;0.70;;;9.40;99.90;;;;;;5114019;28;20044;-74
2023/12/26 03:17:27;;;;;;;0.80;0.80;;;9.40;99.90;;;;;;5113937;28;20080;-75
2023/12/26 03:19:52;;;;;;;0.80;0.80;;;9.40;99.90;;;;;;5114422;28;20051;-77
2023/12/26 03:22:20;;;;;;;0.80;0.80;;;9.40;99.90;;;;;;5113966;28;20042;-77
2023/12/26 03:24:47;;;;;;;0.70;0.70;;;9.40;99.90;;;;;;5113669;28;20047;-73
2023/12/26 03:27:14;;;;;;;2.30;1.63;;;9.40;99.90;;;;;;5114000;28;20093;-75
2023/12/26 03:29:39;;;;;;;0.80;0.80;;;9.30;99.90;;;;;;5114000;28;20075;-76
2023/12/26 03:32:07;;;;;;;0.80;0.80;;;9.40;99.90;;;;;;5112359;28;20074;-72
2023/12/26 03:34:33;;;;;;;0.77;0.77;;;9.40;99.90;;;;;;5113897;28;20073;-77
2023/12/26 03:36:58;;;;;;;0.80;0.80;;;9.40;99.90;;;;;;5113989;28;20039;-76
2023/12/26 03:39:24;;;;;;;0.90;0.90;;;9.40;99.90;;;;;;5113866;28;20126;-72
2023/12/26 03:41:50;;;;;;;0.80;0.80;;;9.40;99.90;;;;;;5113855;28;20123;-75
2023/12/26 03:44:16;;;;;;;0.80;0.80;;;9.40;99.90;;;;;;5113919;28;20036;-75
2023/12/26 03:46:42;;;;;;;0.75;0.75;;;9.40;99.90;;;;;;5113471;28;20079;-75
2023/12/26 03:49:08;;;;;;;0.80;0.80;;;9.40;99.90;;;;;;5114222;28;20093;-76
2023/12/26 03:51:34;;;;;;;0.80;0.80;;;9.40;99.90;;;;;;5113731;28;20035;-76
2023/12/26 03:54:00;;;;;;;0.70;0.70;;;9.40;99.90;;;;;;5113457;28;20044;-75
2023/12/26 03:56:33;;;;;;;0.80;0.80;;;9.50;99.90;;;;;;5113787;28;20521;-76
2023/12/26 03:58:59;;;;;;;0.70;0.70;;;9.50;99.90;;;;;;5113688;28;20031;-76
2023/12/26 04:01:26;;;;;;;0.80;0.80;;;9.50;99.90;;;;;;5113741;28;20082;-75
2023/12/26 04:03:52;;;;;;;1.27;1.17;;;9.60;99.90;;;;;;5113663;28;20082;-76
2023/12/26 04:06:18;;;;;;;0.80;0.80;;;9.50;99.90;;;;;;5117286;28;20044;-74
2023/12/26 04:08:44;;;;;;;0.80;0.80;;;9.50;99.90;;;;;;5117446;28;20371;-75
2023/12/26 04:11:10;;;;;;;0.80;0.80;;;9.40;99.90;;;;;;5117212;28;20031;-74
2023/12/26 04:13:36;;;;;;;0.80;0.80;;;9.40;99.90;;;;;;5117273;27;20536;-76
2023/12/26 04:16:02;;;;;;;0.80;0.80;;;9.30;99.90;;;;;;5117046;28;20433;-73
2023/12/26 04:18:28;;;;;;;0.70;0.70;;;9.30;99.90;;;;;;5116956;28;20091;-75
2023/12/26 04:20:54;;;;;;;0.80;0.80;;;9.20;99.90;;;;;;5117698;28;20040;-76
2023/12/26 04:23:20;;;;;;;0.80;0.80;;;9.20;99.90;;;;;;5117072;28;20046;-73
2023/12/26 04:25:46;;;;;;;0.80;0.80;;;9.20;99.90;;;;;;5117047;28;20471;-76
2023/12/26 04:28:11;;;;;;;0.80;0.80;;;9.10;99.90;;;;;;5117069;28;20036;-73
2023/12/26 04:30:37;;;;;;;0.73;0.73;;;9.10;99.90;;;;;;5117116;28;20071;-72
2023/12/26 04:33:05;;;;;;;0.80;0.80;;;9.00;99.90;;;;;;5117081;28;20035;-73
2023/12/26 04:35:31;;;;;;;2.50;1.83;;;9.00;99.90;;;;;;5116200;28;20370;-74
2023/12/26 04:37:57;;;;;;;0.80;0.80;;;8.90;99.90;;;;;;5116743;28;20118;-74
2023/12/26 04:40:22;;;;;;;0.90;0.90;;;8.90;99.90;;;;;;5116754;28;20352;-73
2023/12/26 04:42:48;;;;;;;10.40;2.40;;;8.80;99.90;;;;;;5116737;28;20371;-74
2023/12/26 04:45:14;;;;;;;0.90;0.90;;;8.80;99.90;;;;;;5116365;28;20031;-73
2023/12/26 04:47:39;;;;;;;0.80;0.80;;;8.80;99.90;;;;;;5117088;28;20075;-75
2023/12/26 04:50:05;;;;;;;1.38;1.27;;;8.60;99.90;;;;;;5116556;28;20371;-73
2023/12/26 04:52:31;;;;;;;0.82;0.82;;;8.60;99.90;;;;;;5116566;28;20032;-74
2023/12/26 04:54:57;;;;;;;0.80;0.80;;;8.60;99.90;;;;;;5116421;28;20050;-74
2023/12/26 04:57:22;;;;;;;0.80;0.80;;;8.50;99.90;;;;;;5116462;28;20076;-73
2023/12/26 04:59:48;;;;;;;0.90;0.90;;;8.40;99.90;;;;;;5116359;28;20043;-75
2023/12/26 05:02:14;;;;;;;0.80;0.80;;;8.40;99.90;;;;;;5116620;28;20042;-75
2023/12/26 05:04:39;;;;;;;0.80;0.80;;;8.40;99.90;;;;;;5116726;28;20592;-75
2023/12/26 05:07:07;;;;;;;0.80;0.80;;;8.40;99.90;;;;;;5116261;28;20467;-74
2023/12/26 05:09:32;;;;;;;0.80;0.80;;;8.30;99.90;;;;;;5116221;28;20071;-74
2023/12/26 05:11:59;;;;;;;0.90;0.90;;;8.20;99.90;;;;;;5116055;28;20508;-75
2023/12/26 05:14:24;;;;;;;0.80;0.80;;;8.10;99.90;;;;;;5116090;28;20041;-75
2023/12/26 05:16:50;;;;;;;0.80;0.80;;;8.10;99.90;;;;;;5114967;28;20122;-75
2023/12/26 05:19:17;;;;;;;0.80;0.80;;;8.10;99.90;;;;;;5115997;28;20472;-73
2023/12/26 05:21:43;;;;;;;0.80;0.80;;;8.10;99.90;;;;;;5116237;28;20421;-73
2023/12/26 05:24:09;;;;;;;0.80;0.80;;;8.10;99.90;;;;;;5115955;28;20036;-74
2023/12/26 05:26:42;;;;;;;0.80;0.80;;;8.10;99.90;;;;;;5115887;28;20519;-74
2023/12/26 05:29:09;;;;;;;0.80;0.80;;;8.10;99.90;;;;;;5115748;28;20080;-75
2023/12/26 05:31:35;;;;;;;0.80;0.80;;;8.00;99.90;;;;;;5115722;28;20046;-72
2023/12/26 05:34:03;;;;;;;0.80;0.80;;;8.00;99.90;;;;;;5115632;28;20047;-75
2023/12/26 05:36:29;;;;;;;0.80;0.80;;;8.00;99.90;;;;;;5115369;28;20471;-75
2023/12/26 05:38:55;;;;;;;0.80;0.80;;;7.90;99.90;;;;;;5115652;28;20081;-75
2023/12/26 05:41:20;;;;;;;0.80;0.80;;;8.00;99.90;;;;;;5115635;28;20032;-73
2023/12/26 05:43:46;;;;;;;0.80;0.80;;;8.00;99.90;;;;;;5115252;28;20075;-76
2023/12/26 05:46:12;;;;;;;0.80;0.80;;;7.90;99.90;;;;;;5115523;28;20039;-76
2023/12/26 05:48:40;;;;;;;0.90;0.90;;;8.00;99.90;;;;;;5115374;28;20114;-73
2023/12/26 05:51:07;;;;;;;0.80;0.80;;;8.00;99.90;;;;;;5115316;28;20043;-72
2023/12/26 05:53:32;;;;;;;0.80;0.80;;;8.00;99.90;;;;;;5115292;28;20047;-73
2023/12/26 05:55:58;;;;;;;0.90;0.90;;;8.00;99.90;;;;;;5114068;28;20031;-75
2023/12/26 05:58:27;;;;;;;0.80;0.80;;;8.10;99.90;;;;;;5115172;28;20145;-74
2023/12/26 06:00:54;;;;;;;0.80;0.80;;;8.10;99.90;;;;;;5115202;28;20044;-76
2023/12/26 06:03:20;;;;;;;0.80;0.80;;;8.10;99.90;;;;;;5114995;28;20479;-73
2023/12/26 06:05:46;;;;;;;0.80;0.80;;;8.10;99.90;;;;;;5115128;28;20032;-75
2023/12/26 06:08:13;;;;;;;0.73;0.73;;;8.10;99.90;;;;;;5101760;28;20051;-73
2023/12/26 06:10:38;;;;;;;0.85;0.85;;;8.10;99.90;;;;;;5093558;28;20479;-74
2023/12/26 06:13:04;;;;;;;0.80;0.80;;;8.10;99.90;;;;;;5094482;28;20123;-76
2023/12/26 06:15:30;;;;;;;0.90;0.90;;;8.20;99.90;;;;;;5094272;28;20046;-75
2023/12/26 06:17:58;;;;;;;0.90;0.90;;;8.10;99.90;;;;;;5094663;28;20043;-73
2023/12/26 06:20:26;;;;;;;0.80;0.80;;;8.20;99.90;;;;;;5094622;28;20380;-75
2023/12/26 06:22:53;;;;;;;1.83;1.73;;;8.20;99.90;;;;;;5094416;28;20071;-74
2023/12/26 06:25:18;;;;;;;0.80;0.80;;;8.20;99.90;;;;;;5094425;28;20036;-73
2023/12/26 06:27:44;;;;;;;1.20;1.10;;;8.30;99.90;;;;;;5094121;28;20543;-75
2023/12/26 06:30:11;;;;;;;0.80;0.80;;;8.30;99.90;;;;;;5094296;28;20380;-70
2023/12/26 06:32:36;;;;;;;0.80;0.80;;;8.30;99.90;;;;;;5093859;28;20533;-74
2023/12/26 06:35:02;;;;;;;0.80;0.80;;;8.30;99.90;;;;;;5094322;28;20044;-76
2023/12/26 06:37:28;;;;;;;0.80;0.80;;;8.30;99.90;;;;;;5094131;28;20468;-81
2023/12/26 06:39:54;;;;;;;0.80;0.80;;;8.30;99.90;;;;;;5094164;28;20126;-77
2023/12/26 06:42:20;;;;;;;0.80;0.80;;;8.30;99.90;;;;;;5094189;28;20118;-77
2023/12/26 06:44:45;;;;;;;0.80;0.80;;;8.40;99.90;;;;;;5094146;28;20428;-75
2023/12/26 06:47:12;;;;;;;0.80;0.80;;;8.40;99.90;;;;;;5094360;28;20384;-75
2023/12/26 06:49:41;;;;;;;9.55;1.02;;;8.40;99.90;;;;;;5094260;28;20097;-74
2023/12/26 06:52:07;;;;;;;0.80;0.80;;;8.40;99.90;;;;;;5093864;28;20073;-74
2023/12/26 06:54:33;;;;;;;0.88;0.88;;;8.40;99.90;;;;;;5092840;28;20424;-75
2023/12/26 06:57:05;;;;;;;0.80;0.80;;;8.40;99.90;;;;;;5094200;28;20395;-75
2023/12/26 06:59:31;;;;;;;1.15;0.95;;;8.40;99.90;;;;;;5094288;28;20048;-72
2023/12/26 07:01:57;;;;;;;0.80;0.80;;;8.50;99.90;;;;;;5093921;28;20101;-73
2023/12/26 07:04:22;;;;;;;0.70;0.70;;;8.50;99.90;;;;;;5093856;28;20079;-77
2023/12/26 07:06:48;;;;;;;0.70;0.70;;;8.50;99.90;;;;;;5093826;28;20047;-76
2023/12/26 07:09:14;;;;;;;0.80;0.80;;;8.50;99.90;;;;;;5093838;28;20043;-75
2023/12/26 07:11:39;;;;;;;0.80;0.80;;;8.50;99.90;;;;;;5093445;28;20079;-75
2023/12/26 07:14:08;;;;;;;0.80;0.80;;;8.50;99.90;;;;;;5093760;28;20051;-76
2023/12/26 07:16:35;;;;;;;0.80;0.80;;;8.50;99.90;;;;;;5093800;28;20043;-76
2023/12/26 07:19:01;;;;;;;0.80;0.80;;;8.50;99.90;;;;;;5093638;28;20095;-75
2023/12/26 07:21:27;;;;;;;0.80;0.80;;;8.50;99.90;;;;;;5093933;28;20048;-72
2023/12/26 07:23:53;;;;;;;0.80;0.80;;;8.50;99.90;;;;;;5093678;28;20079;-74
2023/12/26 07:26:21;;;;;;;0.70;0.70;;;8.50;99.90;;;;;;5093665;28;20078;-75
2023/12/26 07:28:47;;;;;;;5.38;1.90;;;8.50;99.90;;;;;;5093861;28;20040;-77
2023/12/26 07:31:25;;;;;;;0.75;0.75;;;8.50;99.90;;;;;;5093394;28;20081;-77
2023/12/26 07:33:51;;;;;;;0.70;0.70;;;8.50;99.90;;;;;;5093689;28;20379;-79
2023/12/26 07:36:17;;;;;;;0.90;0.90;;;8.50;99.90;;;;;;5093547;28;20143;-77
2023/12/26 07:38:43;;;;;;;0.73;0.73;;;8.50;99.90;;;;;;5093470;28;20071;-76
2023/12/26 07:41:09;;;;;;;0.80;0.80;;;8.50;99.90;;;;;;5097022;28;20460;-75
2023/12/26 07:43:35;;;;;;;0.70;0.70;;;8.50;99.90;;;;;;5097822;28;20081;-75
2023/12/26 07:46:01;;;;;;;0.90;0.90;;;8.50;99.90;;;;;;5097493;28;20089;-75
2023/12/26 07:48:27;;;;;;;0.70;0.70;;;8.50;99.90;;;;;;5097414;28;20032;-73
2023/12/26 07:50:52;;;;;;;0.80;0.80;;;8.40;99.90;;;;;;5097276;28;20407;-79
2023/12/26 07:53:18;;;;;;;0.70;0.70;;;8.40;99.90;;;;;;5097087;28;20047;-74
2023/12/26 07:55:43;;;;;;;0.70;0.70;;;8.40;99.90;;;;;;5096983;28;20044;-74
2023/12/26 07:58:09;;;;;;;0.73;0.73;;;8.40;99.90;;;;;;5097171;28;20126;-75
2023/12/26 08:00:35;;;;;;;0.80;0.80;;;8.40;99.90;;;;;;5097233;28;20039;-75
2023/12/26 08:03:01;;;;;;;0.80;0.80;;;8.40;99.90;;;;;;5097186;28;20047;-76
2023/12/26 08:05:26;;;;;;;0.77;0.77;;;8.40;99.90;;;;;;5096967;28;20032;-73
2023/12/26 08:07:52;;;;;;;0.80;0.80;;;8.40;99.90;;;;;;5096946;28;20341;-74
2023/12/26 08:10:18;;;;;;;0.80;0.80;;;8.40;99.90;;;;;;5096871;28;20039;-77
2023/12/26 08:12:44;;;;;;;0.80;0.80;;;8.40;99.90;;;;;;5096945;28;20478;-79
2023/12/26 08:15:10;;;;;;;5.80;4.38;;;8.30;99.90;;;;;;5097083;28;20185;-74
2023/12/26 08:17:36;;;;;;;0.90;0.90;;;8.40;99.90;;;;;;5097386;28;20040;-79
2023/12/26 08:20:03;;;;;;;0.73;0.73;;;8.40;99.90;;;;;;5096840;28;20384;-70
2023/12/26 08:22:29;;;;;;;0.90;0.90;;;8.40;99.90;;;;;;5096676;28;20048;-80
2023/12/26 08:24:55;;;;;;;0.80;0.80;;;8.40;99.90;;;;;;5097228;28;20044;-79
2023/12/26 08:27:22;;;;;;;0.80;0.80;;;8.40;99.90;;;;;;5097271;28;20055;-76
2023/12/26 08:29:48;;;;;;;0.90;0.90;;;8.40;99.90;;;;;;5096521;28;20043;-73
2023/12/26 08:32:14;;;;;;;0.73;0.73;;;8.40;99.90;;;;;;5095479;28;20472;-72
2023/12/26 08:34:44;;;;;;;0.80;0.80;;;8.40;99.90;;;;;;5096502;28;20123;-76
2023/12/26 08:37:12;;;;;;;0.90;0.90;;;8.40;99.90;;;;;;5096376;28;20036;-72
2023/12/26 08:39:38;;;;;;;0.80;0.80;;;8.40;99.90;;;;;;5096342;28;20150;-74
2023/12/26 08:42:04;;;;;;;1.02;0.90;;;8.40;99.90;;;;;;5096365;28;20123;-72
2023/12/26 08:44:30;;;;;;;2.25;2.15;;;8.40;99.90;;;;;;5096624;28;20036;-75
2023/12/26 08:46:56;;;;;;;0.80;0.80;;;8.40;99.90;;;;;;5096313;28;20388;-80
2023/12/26 08:49:22;;;;;;;0.80;0.80;;;8.40;99.90;;;;;;5096308;28;20383;-73
2023/12/26 08:51:48;;;;;;;0.80;0.80;;;8.20;99.90;;;;;;5095921;28;20388;-72
2023/12/26 08:54:14;;;;;;;0.80;0.80;;;8.40;99.90;;;;;;5096123;28;20555;-76
2023/12/26 08:56:40;;;;;;;0.80;0.80;;;8.40;99.90;;;;;;5096292;28;20126;-74
2023/12/26 08:59:06;;;;;;;0.80;0.80;;;8.50;99.90;;;;;;5096082;28;20048;-72
2023/12/26 09:01:32;;;;;;;0.70;0.70;;;8.50;99.90;;;;;;5096061;28;20097;-75
2023/12/26 09:03:57;;;;;;;0.80;0.80;;;8.50;99.90;;;;;;5096022;28;20029;-76
2023/12/26 09:06:23;;;;;;;0.80;0.80;;;8.50;99.90;;;;;;5096177;28;20036;-75
2023/12/26 09:08:49;;;;;;;0.80;0.80;;;8.50;99.90;;;;;;5096635;28;20054;-75
2023/12/26 09:11:14;;;;;;;0.70;0.70;;;8.50;99.90;;;;;;5095998;28;20539;-76
2023/12/26 09:13:40;;;;;;;0.80;0.80;;;8.50;99.90;;;;;;5096108;28;20499;-72
2023/12/26 09:16:06;;;;;;;1.00;0.90;;;8.50;99.90;;;;;;5095582;28;20467;-74
2023/12/26 09:18:32;;;;;;;0.80;0.80;;;8.50;99.90;;;;;;5095594;28;20078;-75
2023/12/26 09:20:57;;;;;;;4.18;2.13;;;8.50;99.90;;;;;;5095678;28;20051;-72
2023/12/26 09:23:23;;;;;;;1.08;0.98;;;8.50;99.90;;;;;;5095486;28;20078;-75
2023/12/26 09:25:49;;;;;;;0.80;0.80;;;8.50;99.90;;;;;;5095574;28;20105;-75
2023/12/26 09:28:16;;;;;;;0.73;0.73;;;8.50;99.90;;;;;;5095488;28;20096;-74
2023/12/26 09:30:42;;;;;;;0.70;0.70;;;8.60;99.90;;;;;;5095346;28;20372;-74
2023/12/26 09:33:08;;;;;;;0.68;0.68;;;8.60;99.90;;;;;;5095434;28;20039;-76
2023/12/26 09:35:34;;;;;;;0.80;0.80;;;8.60;99.90;;;;;;5095337;28;20090;-85
2023/12/26 09:38:00;;;;;;;1.25;1.15;;;8.60;99.90;;;;;;5095187;28;20481;-69
2023/12/26 09:40:26;;;;;;;15.38;3.92;;;8.60;99.90;;;;;;5095295;28;20048;-73
2023/12/26 09:43:01;;;;;;;0.80;0.80;;;8.70;99.90;;;;;;5095214;28;20028;-72
2023/12/26 09:45:28;;;;;;;0.70;0.70;;;8.70;99.90;;;;;;5095165;28;20138;-72
2023/12/26 09:47:54;;;;;;;0.80;0.80;;;8.70;99.90;;;;;;5094867;28;20044;-75
2023/12/26 09:50:20;;;;;;;1.87;1.10;;;8.70;99.90;;;;;;5094878;28;20383;-75
2023/12/26 09:52:56;;;;;;;0.70;0.70;;;8.70;99.90;;;;;;5094948;28;20312;-76
2023/12/26 09:55:21;;;;;;;0.80;0.80;;;8.80;99.90;;;;;;5094934;28;20123;-76
2023/12/26 09:57:47;;;;;;;0.70;0.70;;;8.80;99.90;;;;;;5095129;28;20472;-74
2023/12/26 10:00:13;;;;;;;0.80;0.80;;;8.80;99.90;;;;;;5094905;28;20040;-74
2023/12/26 10:02:43;;;;;;;0.70;0.70;;;8.80;99.90;;;;;;5094188;28;20300;-72
2023/12/26 10:05:10;;;;;;;0.80;0.80;;;8.80;99.90;;;;;;5094664;28;20031;-74
2023/12/26 10:07:36;;;;;;;0.80;0.80;;;8.80;99.90;;;;;;5094720;28;20028;-75
2023/12/26 10:10:02;;;;;;;0.80;0.80;;;8.70;99.90;;;;;;5094887;28;20119;-75
2023/12/26 10:12:32;;;;;;;0.70;0.70;;;8.70;99.90;;;;;;5094542;28;20062;-75
2023/12/26 10:14:58;;;;;;;0.80;0.80;;;8.70;99.90;;;;;;5094623;28;20332;-69
2023/12/26 10:17:25;;;;;;;0.90;0.90;;;8.60;99.90;;;;;;5094438;28;20044;-78
2023/12/26 10:19:55;;;;;;;1.70;1.60;;;8.60;99.90;;;;;;5094935;28;20048;-74
2023/12/26 10:22:20;;;;;;;0.70;0.70;;;8.60;99.90;;;;;;5094992;28;20040;-73
2023/12/26 10:24:47;;;;;;;0.70;0.70;;;8.60;99.90;;;;;;5094714;28;20127;-73
2023/12/26 10:27:13;;;;;;;0.70;0.70;;;8.60;99.90;;;;;;5094355;28;20031;-75
2023/12/26 10:29:39;;;;;;;0.80;0.80;;;8.60;99.90;;;;;;5094344;28;20161;-75
2023/12/26 10:32:05;;;;;;;0.77;0.77;;;8.60;99.90;;;;;;5094275;28;20118;-69
2023/12/26 10:34:31;;;;;;;0.80;0.80;;;8.60;99.90;;;;;;5094190;28;20028;-71
2023/12/26 10:36:58;;;;;;;0.80;0.80;;;8.60;99.90;;;;;;5094467;28;20039;-71
2023/12/26 10:39:24;;;;;;;0.77;0.77;;;8.70;99.90;;;;;;5094211;28;20083;-70
2023/12/26 10:41:51;;;;;;;0.80;0.80;;;8.70;99.90;;;;;;5094241;28;20148;-71
2023/12/26 10:44:18;;;;;;;0.70;0.70;;;8.70;99.90;;;;;;5094085;28;20079;-68
2023/12/26 10:46:45;;;;;;;0.80;0.80;;;8.70;99.90;;;;;;5093830;28;20039;-69
2023/12/26 10:49:21;;;;;;;0.70;0.70;;;8.70;99.90;;;;;;5094494;28;20042;-76
2023/12/26 10:51:50;;;;;;;0.80;0.80;;;8.80;99.90;;;;;;5093808;28;20577;-75
2023/12/26 10:54:20;;;;;;;0.70;0.70;;;8.80;99.90;;;;;;5093932;28;20043;-76
2023/12/26 10:56:51;;;;;;;0.75;0.75;;;8.80;99.90;;;;;;5093682;28;20369;-79
2023/12/26 13:51:42;;;;;;;1.27;1.17;;;9.00;99.90;;;;;;5074604;28;20044;-76
2023/12/26 13:54:44;;;;;;;0.80;0.80;;;9.00;99.90;;;;;;5074623;28;20040;-75
2023/12/26 13:57:47;;;;;;;0.80;0.80;;;8.90;99.90;;;;;;5074549;28;20067;-76
2023/12/26 14:00:50;;;;;;;0.90;0.90;;;9.00;99.90;;;;;;5074557;28;20048;-74
2023/12/26 14:03:55;;;;;;;0.80;0.80;;;8.90;99.90;;;;;;5074435;28;20049;-73
2023/12/26 14:06:58;;;;;;;0.80;0.80;;;8.90;99.90;;;;;;5074462;28;20051;-75
2023/12/26 14:10:01;;;;;;;1.80;1.70;;;8.90;99.90;;;;;;5074395;28;20040;-73
2023/12/26 14:13:04;;;;;;;0.80;0.80;;;8.90;99.90;;;;;;5074084;28;20488;-74
2023/12/26 14:16:07;;;;;;;0.80;0.80;;;8.80;99.90;;;;;;5074247;28;20048;-73
2023/12/26 14:19:10;;;;;;;0.90;0.90;;;8.80;99.90;;;;;;5074062;28;20127;-73
2023/12/26 14:22:13;;;;;;;1.10;1.00;;;8.70;99.90;;;;;;5074172;28;20056;-75
2023/12/26 14:25:16;;;;;;;0.80;0.80;;;8.60;99.90;;;;;;5074167;28;20426;-75
2023/12/26 14:28:19;;;;;;;0.80;0.80;;;8.60;99.90;;;;;;5074114;28;20073;-74
2023/12/26 14:30:45;;;;;;;0.90;0.90;;;8.60;99.90;;;;;;5073679;28;20036;-74
2023/12/26 14:33:13;;;;;;;0.80;0.80;;;8.60;99.90;;;;;;5074005;28;20059;-73
2023/12/26 14:35:39;;;;;;;0.80;0.80;;;8.60;99.90;;;;;;5074073;28;20040;-75
2023/12/26 14:38:04;;;;;;;0.80;0.80;;;8.50;99.90;;;;;;5074017;28;20128;-74
2023/12/26 14:40:30;;;;;;;2.25;1.23;;;8.50;99.90;;;;;;5073906;28;20033;-74
2023/12/26 14:42:56;;;;;;;0.80;0.80;;;8.40;99.90;;;;;;5073918;28;20444;-73
2023/12/26 14:45:21;;;;;;;0.80;0.80;;;8.50;99.90;;;;;;5073904;28;20037;-73
2023/12/26 14:47:47;;;;;;;0.88;0.88;;;8.40;99.90;;;;;;5074281;28;20127;-73
2023/12/26 14:50:12;;;;;;;0.98;0.98;;;8.50;99.90;;;;;;5073991;28;20048;-75
2023/12/26 14:52:38;;;;;;;1.08;1.08;;;8.30;99.90;;;;;;5073803;28;20032;-72
2023/12/26 14:55:04;;;;;;;0.85;0.85;;;8.30;99.90;;;;;;5073845;28;20182;-75
2023/12/26 14:57:30;;;;;;;0.90;0.90;;;8.30;99.90;;;;;;5073822;28;20047;-74
2023/12/26 14:59:55;;;;;;;0.90;0.90;;;8.30;99.90;;;;;;5073811;28;20044;-75
2023/12/26 15:02:24;;;;;;;0.90;0.90;;;8.20;99.90;;;;;;5073728;28;20032;-75
2023/12/26 15:04:50;;;;;;;0.90;0.90;;;8.20;99.90;;;;;;5072293;28;20383;-74
2023/12/26 15:07:16;;;;;;;0.80;0.80;;;8.10;99.90;;;;;;5073624;28;20040;-75
2023/12/26 15:09:42;;;;;;;0.80;0.80;;;8.10;99.90;;;;;;5073858;28;20079;-75
2023/12/26 15:12:07;;;;;;;0.90;0.90;;;8.10;99.90;;;;;;5073512;28;20078;-74
2023/12/26 15:14:33;;;;;;;0.90;0.90;;;8.00;99.90;;;;;;5073252;28;20036;-76
2023/12/26 15:16:59;;;;;;;0.90;0.90;;;8.00;99.90;;;;;;5073633;28;20399;-72
2023/12/26 15:19:24;;;;;;;0.80;0.80;;;7.90;99.90;;;;;;5073777;28;20041;-75
2023/12/26 15:21:50;;;;;;;0.90;0.90;;;7.80;99.90;;;;;;5073572;28;20518;-75
2023/12/26 15:24:16;;;;;;;0.80;0.80;;;7.80;99.90;;;;;;5073481;28;20036;-76
2023/12/26 15:26:42;;;;;;;0.90;0.90;;;7.80;99.90;;;;;;5073203;28;20081;-75
2023/12/26 15:29:08;;;;;;;0.80;0.80;;;7.70;99.90;;;;;;5073314;28;20487;-75
2023/12/26 15:31:34;;;;;;;0.85;0.85;;;7.70;99.90;;;;;;5073328;28;20282;-73
2023/12/26 15:34:01;;;;;;;0.90;0.90;;;7.60;99.90;;;;;;5073405;28;20041;-73
2023/12/26 15:36:26;;;;;;;0.90;0.90;;;7.60;99.90;;;;;;5073170;28;20400;-74
2023/12/26 15:38:53;;;;;;;0.90;0.90;;;7.50;99.90;;;;;;5073357;28;20032;-75
2023/12/26 15:41:26;;;;;;;0.90;0.90;;;7.50;99.90;;;;;;5073344;28;20040;-73
2023/12/26 15:43:52;;;;;;;0.90;0.90;;;7.50;99.90;;;;;;5073435;28;20132;-72
2023/12/26 15:46:19;;;;;;;0.90;0.90;;;7.40;99.90;;;;;;5073268;28;20119;-74
2023/12/26 15:48:46;;;;;;;0.90;0.90;;;7.40;99.90;;;;;;5073359;28;20044;-75
2023/12/26 15:51:13;;;;;;;;;;;7.30;99.90;;;;;;5073562;28;20032;-74
2023/12/26 15:53:42;;;;;;;0.90;0.90;;;7.30;99.90;;;;;;5073202;28;19916;-74